createdAt,value
2023-03-13T00:01:45.194Z,30.77
2023-03-13T00:04:12.025Z,35.15
2023-03-13T00:06:39.953Z,30.70
2023-03-13T00:09:10.871Z,34.53
2023-03-13T00:11:37.699Z,39.53
2023-03-13T00:14:06.387Z,35.00
2023-03-13T00:16:35.469Z,30.87
2023-03-13T00:19:02.368Z,34.00
2023-03-13T00:21:30.177Z,45.58
2023-03-13T00:24:00.104Z,28.38
2023-03-13T00:26:28.518Z,25.27
2023-03-13T00:28:55.948Z,39.40
2023-03-13T00:31:29.683Z,27.02
2023-03-13T00:34:02.160Z,35.13
2023-03-13T00:36:33.097Z,31.67
2023-03-13T00:39:00.185Z,31.90
2023-03-13T00:41:30.668Z,35.58
2023-03-13T00:43:57.738Z,33.70
2023-03-13T00:46:28.164Z,39.00
2023-03-13T00:48:55.394Z,32.33
2023-03-13T00:51:24.110Z,27.25
2023-03-13T00:53:50.984Z,28.55
2023-03-13T00:56:20.025Z,21.33
2023-03-13T00:58:49.093Z,26.05
2023-03-13T01:01:27.109Z,29.10
2023-03-13T01:04:01.083Z,25.42
2023-03-13T01:06:31.371Z,30.83
2023-03-13T01:08:58.714Z,21.80
2023-03-13T01:11:29.702Z,33.63
2023-03-13T01:13:59.934Z,29.63
2023-03-13T01:16:29.725Z,27.55
2023-03-13T01:19:00.972Z,21.52
2023-03-13T01:21:28.550Z,28.15
2023-03-13T01:23:55.889Z,26.35
2023-03-13T01:26:23.833Z,20.08
2023-03-13T01:28:51.407Z,27.67
2023-03-13T01:31:25.196Z,25.67
2023-03-13T01:33:56.363Z,21.13
2023-03-13T01:36:23.816Z,20.77
2023-03-13T01:38:53.595Z,26.45
2023-03-13T01:41:22.350Z,21.48
2023-03-13T01:43:49.284Z,23.90
2023-03-13T01:46:27.777Z,31.77
2023-03-13T01:49:07.878Z,22.13
2023-03-13T01:51:42.359Z,31.95
2023-03-13T01:54:27.123Z,17.40
2023-03-13T01:57:04.335Z,23.88
2023-03-13T01:59:40.576Z,23.70
2023-03-13T02:02:08.687Z,20.65
2023-03-13T02:04:40.031Z,23.10
2023-03-13T02:07:17.231Z,27.65
2023-03-13T02:09:52.005Z,25.85
2023-03-13T02:12:41.797Z,22.10
2023-03-13T02:15:17.036Z,25.25
2023-03-13T02:17:45.761Z,24.33
2023-03-13T02:20:14.902Z,21.23
2023-03-13T02:23:00.883Z,25.48
2023-03-13T02:25:52.373Z,22.58
2023-03-13T02:28:27.055Z,28.02
2023-03-13T02:30:56.835Z,19.90
2023-03-13T02:33:32.763Z,27.88
2023-03-13T02:36:02.249Z,23.52
2023-03-13T02:38:31.948Z,27.85
2023-03-13T02:41:01.590Z,24.52
2023-03-13T02:43:34.406Z,26.40
2023-03-13T02:46:21.842Z,23.98
2023-03-13T02:48:55.310Z,19.35
2023-03-13T02:51:29.596Z,17.40
2023-03-13T02:56:34.714Z,14.10
2023-03-13T02:59:01.497Z,18.65
2023-03-13T03:01:28.294Z,21.95
2023-03-13T03:03:55.266Z,33.60
2023-03-13T03:06:22.060Z,22.83
2023-03-13T03:08:48.862Z,21.27
2023-03-13T03:11:15.773Z,18.98
2023-03-13T03:13:42.847Z,26.48
2023-03-13T03:16:12.738Z,28.42
2023-03-13T03:18:39.651Z,25.77
2023-03-13T03:21:07.305Z,26.73
2023-03-13T03:23:36.484Z,22.50
2023-03-13T03:26:05.035Z,18.50
2023-03-13T03:28:32.262Z,19.50
2023-03-13T03:31:11.552Z,20.05
2023-03-13T03:33:39.672Z,23.13
2023-03-13T03:36:11.000Z,20.98
2023-03-13T03:38:39.737Z,25.00
2023-03-13T03:41:08.124Z,20.67
2023-03-13T03:43:35.557Z,19.05
2023-03-13T03:46:03.043Z,19.45
2023-03-13T03:48:29.950Z,23.38
2023-03-13T03:50:56.993Z,23.48
2023-03-13T03:53:24.266Z,21.17
2023-03-13T03:55:51.097Z,27.80
2023-03-13T03:58:17.879Z,26.50
2023-03-13T04:00:46.634Z,30.15
2023-03-13T04:03:14.387Z,17.20
2023-03-13T04:05:41.256Z,16.95
2023-03-13T04:08:09.003Z,24.27
2023-03-13T04:10:36.324Z,27.95
2023-03-13T04:13:03.122Z,28.90
2023-03-13T04:15:29.948Z,25.55
2023-03-13T04:17:56.780Z,20.38
2023-03-13T04:20:23.605Z,19.77
2023-03-13T04:22:50.544Z,25.05
2023-03-13T04:25:17.874Z,21.77
2023-03-13T04:27:44.675Z,22.83
2023-03-13T04:30:12.348Z,29.55
2023-03-13T04:32:39.224Z,21.75
2023-03-13T04:35:06.407Z,20.15
2023-03-13T04:37:33.210Z,15.23
2023-03-13T04:39:59.979Z,22.42
2023-03-13T04:42:26.757Z,25.27
2023-03-13T04:44:53.581Z,17.88
2023-03-13T04:47:20.469Z,19.13
2023-03-13T04:49:47.251Z,23.50
2023-03-13T04:52:14.044Z,17.45
2023-03-13T04:54:40.809Z,20.88
2023-03-13T04:57:07.587Z,18.83
2023-03-13T04:59:34.407Z,24.60
2023-03-13T05:02:01.213Z,25.42
2023-03-13T05:04:28.008Z,17.05
2023-03-13T05:06:54.820Z,22.10
2023-03-13T05:09:21.643Z,22.73
2023-03-13T05:11:50.310Z,18.85
2023-03-13T05:14:17.144Z,12.80
2023-03-13T05:16:43.920Z,23.75
2023-03-13T05:19:10.725Z,21.67
2023-03-13T05:21:37.502Z,20.58
2023-03-13T05:24:04.590Z,24.95
2023-03-13T05:26:31.350Z,28.52
2023-03-13T05:28:58.188Z,24.75
2023-03-13T05:31:25.015Z,17.80
2023-03-13T05:33:51.815Z,31.73
2023-03-13T05:36:18.590Z,17.70
2023-03-13T05:38:45.799Z,14.88
2023-03-13T05:41:12.607Z,23.85
2023-03-13T05:43:39.377Z,21.00
2023-03-13T05:46:06.204Z,16.17
2023-03-13T05:48:33.034Z,17.38
2023-03-13T05:50:59.793Z,22.92
2023-03-13T05:53:26.732Z,22.65
2023-03-13T05:55:53.561Z,18.65
2023-03-13T05:58:20.344Z,23.10
2023-03-13T06:00:48.641Z,25.10
2023-03-13T06:03:15.432Z,14.27
2023-03-13T06:05:42.282Z,16.00
2023-03-13T06:08:09.111Z,19.42
2023-03-13T06:10:35.922Z,19.33
2023-03-13T06:13:17.156Z,17.88
2023-03-13T06:15:55.783Z,14.55
2023-03-13T06:18:23.461Z,16.83
2023-03-13T06:20:50.720Z,18.17
2023-03-13T06:23:17.522Z,13.68
2023-03-13T06:25:48.457Z,13.95
2023-03-13T06:28:16.053Z,14.82
2023-03-13T06:30:43.281Z,12.20
2023-03-13T06:33:10.599Z,11.13
2023-03-13T06:35:55.092Z,24.35
2023-03-13T06:38:24.304Z,16.50
2023-03-13T06:40:51.161Z,17.05
2023-03-13T06:43:18.322Z,9.32
2023-03-13T06:45:45.142Z,12.80
2023-03-13T06:48:11.960Z,12.13
2023-03-13T06:50:40.206Z,15.88
2023-03-13T06:53:07.387Z,13.15
2023-03-13T06:55:34.250Z,13.70
2023-03-13T06:58:01.036Z,8.70
2023-03-13T07:00:28.132Z,15.15
2023-03-13T07:02:55.375Z,6.07
2023-03-13T07:05:22.146Z,10.35
2023-03-13T07:07:48.996Z,9.68
2023-03-13T07:10:17.026Z,6.97
2023-03-13T07:12:44.458Z,7.50
2023-03-13T07:15:11.587Z,11.20
2023-03-13T07:17:38.507Z,8.27
2023-03-13T07:20:09.707Z,8.95
2023-03-13T07:22:37.856Z,7.05
2023-03-13T07:25:05.838Z,5.68
2023-03-13T07:27:32.724Z,6.90
2023-03-13T07:29:59.520Z,6.90
2023-03-13T07:32:26.377Z,5.65
2023-03-13T07:34:53.395Z,4.45
2023-03-13T07:37:20.155Z,4.82
2023-03-13T07:39:46.943Z,5.70
2023-03-13T07:42:13.783Z,3.08
2023-03-13T07:44:40.585Z,5.85
2023-03-13T07:47:07.786Z,5.57
2023-03-13T07:49:39.306Z,3.67
2023-03-13T07:52:06.115Z,6.82
2023-03-13T07:54:32.906Z,4.07
2023-03-13T07:57:09.212Z,3.60
2023-03-13T07:59:36.091Z,3.03
2023-03-13T08:02:04.293Z,6.93
2023-03-13T08:04:44.714Z,5.85
2023-03-13T08:07:15.130Z,2.42
2023-03-13T08:09:42.116Z,4.55
2023-03-13T08:12:11.633Z,6.95
2023-03-13T08:14:38.417Z,3.10
2023-03-13T08:17:08.372Z,4.03
2023-03-13T08:19:35.285Z,3.78
2023-03-13T08:22:02.926Z,3.88
2023-03-13T08:24:32.800Z,6.00
2023-03-13T08:26:59.730Z,2.85
2023-03-13T08:29:26.587Z,4.97
2023-03-13T08:31:53.537Z,3.63
2023-03-13T08:34:20.847Z,4.40
2023-03-13T08:36:52.753Z,4.82
2023-03-13T08:39:21.127Z,2.50
2023-03-13T08:41:48.438Z,2.03
2023-03-13T08:44:18.366Z,3.13
2023-03-13T08:46:45.477Z,4.00
2023-03-13T08:49:13.381Z,2.65
2023-03-13T08:51:43.756Z,2.40
2023-03-13T08:54:10.804Z,3.20
2023-03-13T08:56:37.751Z,3.95
2023-03-13T08:59:10.023Z,3.03
2023-03-13T09:01:40.031Z,2.33
2023-03-13T09:04:07.677Z,3.33
2023-03-13T09:06:39.158Z,3.55
2023-03-13T09:09:07.579Z,4.07
2023-03-13T09:11:36.546Z,3.20
2023-03-13T09:14:07.422Z,3.83
2023-03-13T09:16:34.956Z,2.80
2023-03-13T09:19:05.182Z,3.15
2023-03-13T09:31:48.468Z,2.17
2023-03-13T09:42:51.078Z,7.20
2023-03-13T09:49:33.862Z,3.55
2023-03-13T09:56:52.382Z,7.50
2023-03-13T10:00:39.953Z,5.15
2023-03-13T10:10:17.351Z,5.97
2023-03-13T10:12:49.543Z,2.72
2023-03-13T10:16:06.253Z,2.25
2023-03-13T10:19:35.684Z,3.50
2023-03-13T10:22:43.793Z,4.20
2023-03-13T10:26:34.203Z,3.67
2023-03-13T10:29:30.339Z,5.30
2023-03-13T10:32:36.842Z,2.22
2023-03-13T10:35:37.722Z,3.00
2023-03-13T10:38:17.258Z,5.05
2023-03-13T10:41:18.842Z,1.60
2023-03-13T10:44:09.279Z,3.53
2023-03-13T10:46:50.505Z,4.32
2023-03-13T10:49:54.534Z,5.60
2023-03-13T10:55:32.818Z,1.42
2023-03-13T10:58:06.558Z,1.20
2023-03-13T11:00:41.198Z,3.20
2023-03-13T11:03:40.325Z,1.60
2023-03-13T11:09:43.042Z,1.17
2023-03-13T11:12:45.784Z,6.18
2023-03-13T11:15:38.657Z,2.95
2023-03-13T11:18:33.574Z,3.75
2023-03-13T11:21:31.007Z,1.52
2023-03-13T11:24:43.403Z,1.83
2023-03-13T11:28:11.059Z,2.22
2023-03-13T11:31:08.282Z,1.77
2023-03-13T11:34:21.554Z,3.90
2023-03-13T11:37:02.314Z,2.28
2023-03-13T11:40:16.432Z,4.20
2023-03-13T11:43:25.325Z,2.65
2023-03-13T11:46:26.822Z,5.97
2023-03-13T11:49:21.871Z,1.88
2023-03-13T11:52:29.410Z,2.47
2023-03-13T11:55:02.485Z,4.47
2023-03-13T11:57:40.521Z,3.88
2023-03-13T12:01:01.561Z,3.47
2023-03-13T12:03:52.979Z,4.82
2023-03-13T12:06:38.279Z,3.38
2023-03-13T12:09:17.231Z,8.93
2023-03-13T12:11:55.464Z,2.97
2023-03-13T12:14:31.529Z,3.63
2023-03-13T12:17:06.574Z,2.72
2023-03-13T12:19:42.173Z,2.95
2023-03-13T12:22:39.157Z,1.80
2023-03-13T12:25:33.566Z,4.07
2023-03-13T12:28:24.156Z,4.40
2023-03-13T12:31:31.781Z,2.38
2023-03-13T12:34:28.002Z,2.00
2023-03-13T12:37:02.776Z,1.55
2023-03-13T12:39:52.592Z,2.17
2023-03-13T12:42:46.068Z,3.97
2023-03-13T12:45:24.250Z,2.65
2023-03-13T12:48:41.858Z,2.08
2023-03-13T12:51:40.556Z,1.52
2023-03-13T12:54:36.720Z,4.45
2023-03-13T12:57:31.751Z,2.75
2023-03-13T13:02:38.132Z,3.63
2023-03-13T13:05:05.647Z,2.72
2023-03-13T13:07:35.757Z,0.90
2023-03-13T13:10:11.867Z,1.55
2023-03-13T13:12:47.106Z,2.30
2023-03-13T13:15:27.481Z,2.95
2023-03-13T13:18:25.244Z,5.45
2023-03-13T13:21:06.878Z,4.40
2023-03-13T13:23:46.915Z,2.75
2023-03-13T13:26:29.610Z,2.55
2023-03-13T13:29:22.316Z,1.85
2023-03-13T13:31:51.801Z,2.60
2023-03-13T13:34:31.028Z,2.00
2023-03-13T13:37:25.608Z,2.33
2023-03-13T13:39:54.182Z,1.20
2023-03-13T13:42:32.824Z,2.20
2023-03-13T13:45:01.060Z,2.28
2023-03-13T13:47:33.441Z,2.03
2023-03-13T13:50:01.138Z,1.52
2023-03-13T13:52:39.810Z,3.60
2023-03-13T13:55:26.468Z,1.80
2023-03-13T13:58:24.640Z,3.90
2023-03-13T14:00:59.341Z,0.75
2023-03-13T14:03:32.910Z,2.03
2023-03-13T14:06:17.813Z,1.13
2023-03-13T14:08:46.976Z,2.75
2023-03-13T14:11:38.827Z,4.13
2023-03-13T14:14:20.029Z,1.15
2023-03-13T14:16:57.170Z,1.00
2023-03-13T14:19:39.206Z,0.93
2023-03-13T14:22:12.178Z,0.60
2023-03-13T14:24:46.515Z,2.88
2023-03-13T14:30:11.936Z,2.38
2023-03-13T14:32:52.608Z,1.50
2023-03-13T14:35:23.365Z,3.35
2023-03-13T14:37:55.888Z,0.47
2023-03-13T14:40:29.886Z,3.35
2023-03-13T14:43:02.261Z,1.48
2023-03-13T14:45:35.479Z,0.40
2023-03-13T14:48:10.229Z,2.00
2023-03-13T14:50:37.033Z,2.13
2023-03-13T14:53:12.836Z,0.50
2023-03-13T14:55:41.111Z,1.58
2023-03-13T14:58:20.136Z,6.70
2023-03-13T15:00:48.882Z,0.50
2023-03-13T15:03:20.222Z,1.40
2023-03-13T15:06:07.455Z,0.15
2023-03-13T15:08:37.960Z,3.75
2023-03-13T15:11:28.687Z,0.70
2023-03-13T15:13:56.608Z,1.05
2023-03-13T15:16:24.707Z,1.17
2023-03-13T15:18:53.633Z,1.35
2023-03-13T15:21:30.232Z,0.32
2023-03-13T15:24:03.472Z,2.42
2023-03-13T15:26:30.409Z,0.75
2023-03-13T15:28:57.370Z,2.45
2023-03-13T15:31:28.166Z,0.47
2023-03-13T15:33:59.226Z,4.32
2023-03-13T15:36:28.443Z,2.17
2023-03-13T15:38:56.606Z,0.40
2023-03-13T15:41:24.087Z,0.95
2023-03-13T15:43:52.658Z,3.20
2023-03-13T15:46:23.420Z,1.27
2023-03-13T15:48:54.024Z,1.20
2023-03-13T15:51:20.983Z,1.95
2023-03-13T15:53:47.977Z,0.32
2023-03-13T15:56:18.690Z,1.67
2023-03-13T15:58:47.845Z,0.93
2023-03-13T16:01:17.375Z,2.92
2023-03-13T16:03:44.611Z,2.35
2023-03-13T16:06:20.683Z,5.03
2023-03-13T16:08:47.702Z,1.38
2023-03-13T16:11:16.777Z,1.77
2023-03-13T16:13:43.968Z,0.60
2023-03-13T16:16:20.584Z,1.58
2023-03-13T16:18:53.888Z,3.90
2023-03-13T16:21:25.792Z,0.30
2023-03-13T16:23:53.255Z,1.95
2023-03-13T16:26:27.661Z,0.20
2023-03-13T16:31:28.477Z,0.38
2023-03-13T16:33:56.635Z,1.23
2023-03-13T16:36:31.223Z,0.70
2023-03-13T16:39:05.441Z,1.90
2023-03-13T16:41:32.916Z,3.28
2023-03-13T16:43:59.742Z,0.93
2023-03-13T16:46:37.881Z,2.50
2023-03-13T16:49:06.116Z,0.63
2023-03-13T16:51:33.289Z,0.30
2023-03-13T16:54:00.620Z,1.35
2023-03-13T16:56:37.216Z,3.55
2023-03-13T16:59:10.159Z,5.35
2023-03-13T17:01:36.957Z,1.02
2023-03-13T17:04:04.387Z,5.45
2023-03-13T17:06:42.144Z,2.53
2023-03-13T17:09:16.305Z,2.00
2023-03-13T17:11:44.144Z,3.67
2023-03-13T17:14:11.655Z,3.03
2023-03-13T17:16:45.822Z,1.08
2023-03-13T17:19:14.332Z,1.35
2023-03-13T17:21:41.149Z,2.47
2023-03-13T17:24:08.261Z,2.47
2023-03-13T17:26:38.433Z,0.38
2023-03-13T17:29:07.029Z,2.85
2023-03-13T17:31:38.453Z,0.75
2023-03-13T17:34:07.203Z,1.63
2023-03-13T17:36:35.457Z,3.47
2023-03-13T17:39:05.618Z,1.80
2023-03-13T17:41:38.058Z,1.92
2023-03-13T17:44:07.723Z,0.70
2023-03-13T17:46:47.385Z,1.38
2023-03-13T17:49:17.368Z,2.45
2023-03-13T17:51:46.255Z,1.77
2023-03-13T17:54:15.650Z,1.65
2023-03-13T17:56:44.272Z,3.40
2023-03-13T17:59:17.156Z,2.17
2023-03-13T18:01:44.959Z,3.15
2023-03-13T18:04:12.998Z,0.95
2023-03-13T18:06:45.151Z,2.75
2023-03-13T18:09:16.792Z,1.45
2023-03-13T18:11:43.772Z,2.95
2023-03-13T18:14:11.359Z,3.17
2023-03-13T18:16:47.410Z,2.15
2023-03-13T18:19:22.464Z,1.02
2023-03-13T18:21:52.436Z,1.40
2023-03-13T18:24:20.031Z,2.88
2023-03-13T18:26:49.511Z,1.52
2023-03-13T18:29:26.339Z,0.60
2023-03-13T18:31:55.505Z,1.33
2023-03-13T18:34:23.775Z,1.10
2023-03-13T18:36:51.348Z,4.05
2023-03-13T18:39:19.964Z,1.90
2023-03-13T18:41:48.969Z,2.45
2023-03-13T18:44:18.816Z,2.30
2023-03-13T18:46:45.866Z,1.92
2023-03-13T18:49:24.584Z,1.77
2023-03-13T18:51:53.909Z,1.13
2023-03-13T18:54:20.778Z,1.38
2023-03-13T18:56:47.867Z,1.75
2023-03-13T18:59:20.624Z,1.23
2023-03-13T19:01:48.410Z,1.67
2023-03-13T19:04:16.371Z,1.00
2023-03-13T19:06:45.763Z,5.45
2023-03-13T19:09:41.713Z,2.05
2023-03-13T19:12:05.794Z,0.63
2023-03-13T19:14:33.250Z,1.65
2023-03-13T19:17:00.014Z,1.52
2023-03-13T19:19:26.945Z,2.13
2023-03-13T19:21:56.152Z,4.03
2023-03-13T19:24:26.491Z,1.23
2023-03-13T19:26:58.564Z,1.00
2023-03-13T19:29:27.866Z,1.02
2023-03-13T19:31:55.129Z,2.35
2023-03-13T19:34:22.049Z,4.65
2023-03-13T19:36:50.301Z,3.05
2023-03-13T19:39:25.438Z,3.80
2023-03-13T19:41:54.272Z,0.85
2023-03-13T19:44:21.749Z,1.05
2023-03-13T19:46:48.958Z,0.63
2023-03-13T19:49:18.802Z,1.27
2023-03-13T19:51:46.305Z,5.82
2023-03-13T19:54:13.658Z,1.23
2023-03-13T19:56:46.868Z,1.55
2023-03-13T19:59:26.742Z,10.25
2023-03-13T20:01:55.636Z,2.40
2023-03-13T20:04:22.700Z,4.38
2023-03-13T20:06:49.556Z,2.55
2023-03-13T20:09:17.977Z,1.33
2023-03-13T20:11:45.226Z,1.75
2023-03-13T20:14:12.436Z,1.77
2023-03-13T20:16:39.428Z,3.00
2023-03-13T20:19:06.396Z,1.63
2023-03-13T20:21:36.595Z,4.45
2023-03-13T20:24:03.926Z,2.78
2023-03-13T20:26:30.899Z,1.33
2023-03-13T20:28:58.313Z,1.55
2023-03-13T20:31:29.069Z,1.35
2023-03-13T20:33:57.887Z,2.78
2023-03-13T20:36:25.374Z,3.92
2023-03-13T20:38:52.772Z,1.25
2023-03-13T20:41:25.151Z,1.10
2023-03-13T20:43:52.800Z,1.13
2023-03-13T20:46:20.535Z,2.10
2023-03-13T20:48:47.393Z,1.48
2023-03-13T20:51:14.438Z,1.35
2023-03-13T20:53:42.520Z,0.75
2023-03-13T20:56:11.402Z,1.40
2023-03-13T20:58:38.902Z,1.02
2023-03-13T21:01:07.535Z,1.35
2023-03-13T21:03:35.920Z,3.17
2023-03-13T21:06:16.322Z,1.23
2023-03-13T21:08:45.565Z,1.50
2023-03-13T21:11:22.025Z,2.67
2023-03-13T21:13:50.069Z,5.80
2023-03-13T21:16:18.542Z,1.60
2023-03-13T21:18:46.322Z,1.27
2023-03-13T21:21:19.029Z,3.63
2023-03-13T21:23:46.877Z,1.58
2023-03-13T21:26:14.806Z,1.40
2023-03-13T21:28:41.919Z,1.23
2023-03-13T21:31:19.629Z,3.20
2023-03-13T21:33:47.231Z,1.92
2023-03-13T21:36:16.480Z,3.17
2023-03-13T21:38:44.578Z,1.52
2023-03-13T21:41:14.654Z,2.50
2023-03-13T21:43:42.815Z,0.88
2023-03-13T21:46:12.384Z,1.25
2023-03-13T21:48:40.728Z,2.13
2023-03-13T21:51:09.152Z,2.83
2023-03-13T21:53:36.804Z,1.10
2023-03-13T21:56:04.372Z,2.55
2023-03-13T21:58:31.311Z,2.20
2023-03-13T22:00:59.298Z,2.20
2023-03-13T22:03:26.659Z,2.80
2023-03-13T22:05:53.592Z,2.25
2023-03-13T22:08:20.498Z,1.83
2023-03-13T22:10:49.223Z,3.30
2023-03-13T22:13:17.337Z,1.70
2023-03-13T22:15:46.408Z,2.15
2023-03-13T22:18:15.340Z,2.10
2023-03-13T22:20:43.103Z,3.90
2023-03-13T22:23:11.515Z,3.85
2023-03-13T22:25:40.402Z,2.28
2023-03-13T22:28:07.402Z,3.47
2023-03-13T22:30:34.988Z,5.40
2023-03-13T22:33:03.791Z,1.75
2023-03-13T22:35:30.562Z,1.52
2023-03-13T22:37:57.352Z,4.38
2023-03-13T22:40:24.177Z,3.13
2023-03-13T22:42:51.677Z,3.28
2023-03-13T22:45:19.178Z,2.58
2023-03-13T22:47:46.031Z,2.95
2023-03-13T22:50:13.492Z,5.00
2023-03-13T22:52:40.677Z,2.47
2023-03-13T22:55:08.191Z,4.40
2023-03-13T22:57:35.034Z,4.53
2023-03-13T23:00:01.940Z,3.40
2023-03-13T23:02:29.158Z,4.10
2023-03-13T23:04:58.341Z,3.22
2023-03-13T23:07:28.423Z,7.88
2023-03-13T23:09:56.025Z,1.58
2023-03-13T23:12:24.274Z,6.70
2023-03-13T23:14:52.217Z,4.15
2023-03-13T23:17:19.079Z,3.78
2023-03-13T23:19:45.916Z,6.30
2023-03-13T23:22:17.639Z,2.80
2023-03-13T23:24:44.737Z,4.88
2023-03-13T23:27:11.794Z,2.65
2023-03-13T23:29:38.745Z,4.00
2023-03-13T23:32:05.642Z,3.25
2023-03-13T23:34:32.567Z,2.85
2023-03-13T23:36:59.652Z,3.15
2023-03-13T23:39:26.456Z,2.30
2023-03-13T23:41:53.237Z,2.92
2023-03-13T23:44:22.700Z,2.40
2023-03-13T23:46:49.541Z,2.72
2023-03-13T23:49:16.511Z,3.67
2023-03-13T23:51:43.358Z,4.32
2023-03-13T23:54:10.157Z,3.15
2023-03-13T23:56:39.912Z,3.03
2023-03-13T23:59:06.864Z,4.57
